Lincoln, Nebraska
Current Conditions -  °F | °C
As of 7:54 PM on Tuesday 21 Oct 2014 (Local Time) from KLNK Reporting Station
Clear Clear  
Wind Chill: 17°   Ceiling: Unl
Heat Index: 17°   Visibility: 10mi
Dew Point:   Wind: 9mph
Humidity: 45%   Direction: 130°SE
Pressure: 30.04"   Gusts: NA
Location:  40.81°N, 96.71°W
Report Text: KLNK 220054Z 13008KT 10SM CLR 17/05 A3004 RMK AO2 SLP173 T01720050
Loading
Personal Weather Stations






























Interactive Weather Map New forecast layout! Learn more

10-Day Weather Forecast

Advertisements
Track Severe Weather on mobile